createdAt,value
2023-04-26T00:00:04.580Z,1003.19
2023-04-26T00:01:04.572Z,1003.20
2023-04-26T00:02:04.552Z,1003.16
2023-04-26T00:03:04.847Z,1003.18
2023-04-26T00:04:04.883Z,1003.23
2023-04-26T00:05:04.694Z,1003.19
2023-04-26T00:06:04.516Z,1003.25
2023-04-26T00:07:04.486Z,1003.28
2023-04-26T00:08:04.515Z,1003.32
2023-04-26T00:09:04.832Z,1003.31
2023-04-26T00:10:04.462Z,1003.34
2023-04-26T00:11:04.448Z,1003.32
2023-04-26T00:12:04.427Z,1003.32
2023-04-26T00:13:04.412Z,1003.36
2023-04-26T00:14:04.414Z,1003.39
2023-04-26T00:15:04.398Z,1003.37
2023-04-26T00:16:04.383Z,1003.36
2023-04-26T00:17:04.364Z,1003.38
2023-04-26T00:18:04.452Z,1003.40
2023-04-26T00:19:04.367Z,1003.38
2023-04-26T00:20:04.317Z,1003.41
2023-04-26T00:21:04.315Z,1003.44
2023-04-26T00:22:04.286Z,1003.43
2023-04-26T00:23:04.305Z,1003.41
2023-04-26T00:24:04.277Z,1003.41
2023-04-26T00:25:04.256Z,1003.41
2023-04-26T00:26:04.253Z,1003.42
2023-04-26T00:27:04.234Z,1003.38
2023-04-26T00:28:04.320Z,1003.41
2023-04-26T00:29:04.292Z,1003.44
2023-04-26T00:30:04.185Z,1003.38
2023-04-26T00:31:04.212Z,1003.44
2023-04-26T00:32:04.479Z,1003.46
2023-04-26T00:33:04.208Z,1003.44
2023-04-26T00:34:04.156Z,1003.42
2023-04-26T00:35:04.128Z,1003.42
2023-04-26T00:36:04.225Z,1003.38
2023-04-26T00:37:04.103Z,1003.39
2023-04-26T00:38:04.087Z,1003.38
2023-04-26T00:39:04.101Z,1003.40
2023-04-26T00:40:04.058Z,1003.37
2023-04-26T00:41:04.045Z,1003.43
2023-04-26T00:42:04.034Z,1003.42
2023-04-26T00:43:04.021Z,1003.38
2023-04-26T00:44:04.048Z,1003.37
2023-04-26T00:45:03.995Z,1003.39
2023-04-26T00:46:04.029Z,1003.41
2023-04-26T00:47:03.967Z,1003.38
2023-04-26T00:48:03.985Z,1003.43
2023-04-26T00:49:03.958Z,1003.42
2023-04-26T00:50:03.925Z,1003.44
2023-04-26T00:51:03.915Z,1003.46
2023-04-26T00:52:03.885Z,1003.46
2023-04-26T00:53:03.894Z,1003.44
2023-04-26T00:54:03.881Z,1003.43
2023-04-26T00:55:03.845Z,1003.45
2023-04-26T00:56:03.891Z,1003.42
2023-04-26T00:57:03.837Z,1003.40
2023-04-26T00:58:03.811Z,1003.36
2023-04-26T00:59:03.844Z,1003.34
2023-04-26T01:00:03.794Z,1003.35
2023-04-26T01:01:03.843Z,1003.35
2023-04-26T01:02:03.806Z,1003.33
2023-04-26T01:03:03.901Z,1003.34
2023-04-26T01:04:03.912Z,1003.34
2023-04-26T01:05:03.729Z,1003.34
2023-04-26T01:06:03.717Z,1003.37
2023-04-26T01:07:03.715Z,1003.36
2023-04-26T01:08:03.688Z,1003.33
2023-04-26T01:09:03.690Z,1003.34
2023-04-26T01:10:03.670Z,1003.31
2023-04-26T01:11:03.653Z,1003.33
2023-04-26T01:12:03.639Z,1003.32
2023-04-26T01:13:03.635Z,1003.29
2023-04-26T01:14:03.622Z,1003.30
2023-04-26T01:15:03.600Z,1003.30
2023-04-26T01:16:03.577Z,1003.29
2023-04-26T01:17:03.629Z,1003.31
2023-04-26T01:18:03.620Z,1003.31
2023-04-26T01:19:03.560Z,1003.33
2023-04-26T01:20:03.524Z,1003.35
2023-04-26T01:21:03.657Z,1003.33
2023-04-26T01:22:03.509Z,1003.34
2023-04-26T01:23:03.492Z,1003.30
2023-04-26T01:24:03.483Z,1003.37
2023-04-26T01:25:03.491Z,1003.39
2023-04-26T01:26:03.440Z,1003.42
2023-04-26T01:27:03.442Z,1003.47
2023-04-26T01:28:03.421Z,1003.42
2023-04-26T01:29:03.430Z,1003.45
2023-04-26T01:30:03.408Z,1003.46
2023-04-26T01:31:03.405Z,1003.42
2023-04-26T01:32:03.367Z,1003.42
2023-04-26T01:33:03.382Z,1003.42
2023-04-26T01:34:03.364Z,1003.42
2023-04-26T01:35:03.323Z,1003.44
2023-04-26T01:36:03.312Z,1003.49
2023-04-26T01:37:03.322Z,1003.46
2023-04-26T01:38:03.289Z,1003.47
2023-04-26T01:39:03.324Z,1003.47
2023-04-26T01:40:03.260Z,1003.45
2023-04-26T01:41:03.240Z,1003.45
2023-04-26T01:42:03.234Z,1003.45
2023-04-26T01:43:03.277Z,1003.49
2023-04-26T01:44:03.226Z,1003.50
2023-04-26T01:45:03.200Z,1003.51
2023-04-26T01:46:03.225Z,1003.52
2023-04-26T01:47:03.218Z,1003.47
2023-04-26T01:48:03.231Z,1003.49
2023-04-26T01:49:03.156Z,1003.48
2023-04-26T01:50:03.123Z,1003.46
2023-04-26T01:51:03.137Z,1003.45
2023-04-26T01:52:03.100Z,1003.45
2023-04-26T01:53:03.084Z,1003.44
2023-04-26T01:54:03.110Z,1003.42
2023-04-26T01:55:03.059Z,1003.42
2023-04-26T01:56:03.040Z,1003.41
2023-04-26T01:57:03.028Z,1003.43
2023-04-26T01:58:03.024Z,1003.46
2023-04-26T01:59:03.017Z,1003.44
2023-04-26T02:00:02.990Z,1003.41
2023-04-26T02:01:02.975Z,1003.44
2023-04-26T02:02:03.204Z,1003.45
2023-04-26T02:03:03.042Z,1003.49
2023-04-26T02:04:02.941Z,1003.47
2023-04-26T02:05:02.953Z,1003.46
2023-04-26T02:06:02.908Z,1003.45
2023-04-26T02:07:02.900Z,1003.46
2023-04-26T02:08:02.885Z,1003.44
2023-04-26T02:09:02.869Z,1003.48
2023-04-26T02:10:02.893Z,1003.44
2023-04-26T02:11:02.846Z,1003.44
2023-04-26T02:12:02.835Z,1003.44
2023-04-26T02:13:02.820Z,1003.37
2023-04-26T02:14:02.811Z,1003.42
2023-04-26T02:15:02.817Z,1003.39
2023-04-26T02:16:02.829Z,1003.38
2023-04-26T02:17:02.770Z,1003.35
2023-04-26T02:18:02.791Z,1003.36
2023-04-26T02:19:02.744Z,1003.40
2023-04-26T02:20:02.739Z,1003.39
2023-04-26T02:21:02.722Z,1003.39
2023-04-26T02:22:02.704Z,1003.41
2023-04-26T02:23:02.679Z,1003.38
2023-04-26T02:24:02.671Z,1003.39
2023-04-26T02:25:02.688Z,1003.39
2023-04-26T02:26:02.651Z,1003.39
2023-04-26T02:27:02.644Z,1003.33
2023-04-26T02:28:02.626Z,1003.40
2023-04-26T02:29:02.608Z,1003.41
2023-04-26T02:30:02.623Z,1003.45
2023-04-26T02:31:02.592Z,1003.43
2023-04-26T02:32:02.571Z,1003.42
2023-04-26T02:33:02.633Z,1003.43
2023-04-26T02:34:02.547Z,1003.45
2023-04-26T02:35:02.554Z,1003.44
2023-04-26T02:36:02.514Z,1003.43
2023-04-26T02:37:02.499Z,1003.43
2023-04-26T02:38:02.498Z,1003.44
2023-04-26T02:39:02.472Z,1003.40
2023-04-26T02:40:02.464Z,1003.44
2023-04-26T02:41:02.434Z,1003.48
2023-04-26T02:42:02.454Z,1003.50
2023-04-26T02:43:02.414Z,1003.47
2023-04-26T02:44:02.414Z,1003.52
2023-04-26T02:45:02.392Z,1003.52
2023-04-26T02:46:02.372Z,1003.51
2023-04-26T02:47:02.450Z,1003.57
2023-04-26T02:48:02.390Z,1003.54
2023-04-26T02:49:02.332Z,1003.59
2023-04-26T02:50:02.350Z,1003.56
2023-04-26T02:51:02.303Z,1003.55
2023-04-26T02:52:02.295Z,1003.60
2023-04-26T02:53:02.290Z,1003.58
2023-04-26T02:54:02.269Z,1003.60
2023-04-26T02:55:02.264Z,1003.57
2023-04-26T02:56:02.237Z,1003.60
2023-04-26T02:57:02.233Z,1003.56
2023-04-26T02:58:02.216Z,1003.58
2023-04-26T02:59:02.190Z,1003.56
2023-04-26T03:00:02.212Z,1003.55
2023-04-26T03:01:02.226Z,1003.55
2023-04-26T03:02:02.213Z,1003.57
2023-04-26T03:03:02.364Z,1003.56
2023-04-26T03:04:02.200Z,1003.58
2023-04-26T03:05:02.179Z,1003.56
2023-04-26T03:06:02.111Z,1003.59
2023-04-26T03:07:02.094Z,1003.53
2023-04-26T03:08:02.090Z,1003.54
2023-04-26T03:09:02.068Z,1003.55
2023-04-26T03:10:02.089Z,1003.54
2023-04-26T03:11:02.060Z,1003.49
2023-04-26T03:12:02.027Z,1003.50
2023-04-26T03:13:02.074Z,1003.48
2023-04-26T03:14:02.013Z,1003.50
2023-04-26T03:15:02.004Z,1003.50
2023-04-26T03:16:02.113Z,1003.50
2023-04-26T03:17:02.009Z,1003.48
2023-04-26T03:18:02.021Z,1003.53
2023-04-26T03:19:02.057Z,1003.51
2023-04-26T03:20:02.731Z,1003.52
2023-04-26T03:21:01.920Z,1003.55
2023-04-26T03:22:01.913Z,1003.53
2023-04-26T03:23:02.014Z,1003.53
2023-04-26T03:24:01.878Z,1003.52
2023-04-26T03:25:01.858Z,1003.56
2023-04-26T03:26:01.852Z,1003.56
2023-04-26T03:27:01.861Z,1003.57
2023-04-26T03:28:01.810Z,1003.55
2023-04-26T03:29:01.805Z,1003.50
2023-04-26T03:30:01.785Z,1003.51
2023-04-26T03:31:01.834Z,1003.50
2023-04-26T03:32:01.792Z,1003.53
2023-04-26T03:33:01.755Z,1003.49
2023-04-26T03:34:01.728Z,1003.52
2023-04-26T03:35:01.727Z,1003.50
2023-04-26T03:36:01.717Z,1003.49
2023-04-26T03:37:01.718Z,1003.51
2023-04-26T03:38:01.724Z,1003.49
2023-04-26T03:39:01.684Z,1003.47
2023-04-26T03:40:01.664Z,1003.50
2023-04-26T03:41:01.666Z,1003.48
2023-04-26T03:42:01.622Z,1003.49
2023-04-26T03:43:01.625Z,1003.43
2023-04-26T03:44:01.614Z,1003.45
2023-04-26T03:45:01.606Z,1003.47
2023-04-26T03:46:01.655Z,1003.48
2023-04-26T03:47:01.582Z,1003.48
2023-04-26T03:48:01.599Z,1003.48
2023-04-26T03:49:01.565Z,1003.46
2023-04-26T03:50:01.546Z,1003.44
2023-04-26T03:51:01.510Z,1003.44
2023-04-26T03:52:01.504Z,1003.45
2023-04-26T03:53:01.512Z,1003.46
2023-04-26T03:54:01.484Z,1003.45
2023-04-26T03:55:01.489Z,1003.47
2023-04-26T03:56:01.448Z,1003.46
2023-04-26T03:57:01.441Z,1003.46
2023-04-26T03:58:01.420Z,1003.46
2023-04-26T03:59:01.422Z,1003.46
2023-04-26T04:00:01.420Z,1003.47
2023-04-26T04:01:01.419Z,1003.45
2023-04-26T04:02:01.409Z,1003.41
2023-04-26T04:03:01.535Z,1003.44
2023-04-26T04:04:01.655Z,1003.42
2023-04-26T04:05:01.522Z,1003.44
2023-04-26T04:06:01.326Z,1003.41
2023-04-26T04:07:01.311Z,1003.40
2023-04-26T04:08:01.285Z,1003.41
2023-04-26T04:09:01.283Z,1003.38
2023-04-26T04:10:01.254Z,1003.39
2023-04-26T04:11:01.267Z,1003.40
2023-04-26T04:12:01.224Z,1003.43
2023-04-26T04:13:01.235Z,1003.45
2023-04-26T04:14:01.206Z,1003.49
2023-04-26T04:15:01.360Z,1003.46
2023-04-26T04:16:01.236Z,1003.50
2023-04-26T04:17:01.177Z,1003.49
2023-04-26T04:18:01.186Z,1003.52
2023-04-26T04:19:01.136Z,1003.52
2023-04-26T04:20:01.134Z,1003.55
2023-04-26T04:21:01.131Z,1003.54
2023-04-26T04:22:01.149Z,1003.54
2023-04-26T04:23:01.072Z,1003.55
2023-04-26T04:24:01.070Z,1003.54
2023-04-26T04:25:01.055Z,1003.56
2023-04-26T04:26:01.063Z,1003.59
2023-04-26T04:27:01.044Z,1003.65
2023-04-26T04:28:01.014Z,1003.63
2023-04-26T04:29:01.010Z,1003.66
2023-04-26T04:30:00.997Z,1003.66
2023-04-26T04:31:01.045Z,1003.68
2023-04-26T04:32:00.957Z,1003.73
2023-04-26T04:33:01.057Z,1003.71
2023-04-26T04:34:00.938Z,1003.76
2023-04-26T04:35:00.965Z,1003.76
2023-04-26T04:36:00.910Z,1003.74
2023-04-26T04:37:00.921Z,1003.75
2023-04-26T04:38:00.874Z,1003.76
2023-04-26T04:39:00.883Z,1003.77
2023-04-26T04:40:00.864Z,1003.82
2023-04-26T04:41:00.909Z,1003.79
2023-04-26T04:42:00.839Z,1003.82
2023-04-26T04:43:00.819Z,1003.80
2023-04-26T04:44:00.803Z,1003.84
2023-04-26T04:45:00.822Z,1003.86
2023-04-26T04:46:00.874Z,1003.85
2023-04-26T04:47:00.826Z,1003.93
2023-04-26T04:48:00.830Z,1003.89
2023-04-26T04:49:00.753Z,1003.90
2023-04-26T04:50:00.746Z,1003.93
2023-04-26T04:51:00.736Z,1003.97
2023-04-26T04:52:00.711Z,1003.96
2023-04-26T04:53:00.697Z,1003.97
2023-04-26T04:54:00.686Z,1003.98
2023-04-26T04:55:00.692Z,1003.95
2023-04-26T04:56:00.651Z,1003.98
2023-04-26T04:57:00.653Z,1004.00
2023-04-26T04:58:00.660Z,1003.98
2023-04-26T04:59:00.636Z,1004.00
2023-04-26T05:00:00.633Z,1004.01
2023-04-26T05:01:00.597Z,1003.96
2023-04-26T05:02:00.603Z,1004.00
2023-04-26T05:03:00.779Z,1004.02
2023-04-26T05:04:00.809Z,1003.99
2023-04-26T05:05:00.626Z,1003.98
2023-04-26T05:06:00.536Z,1004.05
2023-04-26T05:07:00.508Z,1004.04
2023-04-26T05:08:00.502Z,1004.10
2023-04-26T05:09:00.504Z,1004.08
2023-04-26T05:10:00.529Z,1004.09
2023-04-26T05:11:00.477Z,1004.07
2023-04-26T05:12:00.516Z,1004.07
2023-04-26T05:13:00.444Z,1004.07
2023-04-26T05:14:00.442Z,1004.06
2023-04-26T05:15:00.464Z,1004.11
2023-04-26T05:16:00.441Z,1004.11
2023-04-26T05:17:00.379Z,1004.11
2023-04-26T05:18:07.678Z,1004.13
2023-04-26T05:19:00.361Z,1004.15
2023-04-26T05:20:00.359Z,1004.13
2023-04-26T05:21:00.329Z,1004.15
2023-04-26T05:22:00.314Z,1004.16
2023-04-26T05:23:00.315Z,1004.19
2023-04-26T05:24:00.329Z,1004.18
2023-04-26T05:25:00.303Z,1004.20
2023-04-26T05:26:00.349Z,1004.17
2023-04-26T05:27:00.264Z,1004.18
2023-04-26T05:28:00.256Z,1004.17
2023-04-26T05:29:00.235Z,1004.15
2023-04-26T05:30:00.220Z,1004.23
2023-04-26T05:31:00.303Z,1004.20
2023-04-26T05:32:00.464Z,1004.21
2023-04-26T05:33:00.254Z,1004.25
2023-04-26T05:34:00.172Z,1004.23
2023-04-26T05:35:00.157Z,1004.24
2023-04-26T05:36:00.137Z,1004.25
2023-04-26T05:37:00.126Z,1004.23
2023-04-26T05:38:00.205Z,1004.24
2023-04-26T05:39:00.141Z,1004.27
2023-04-26T05:40:00.138Z,1004.27
2023-04-26T05:41:00.099Z,1004.30
2023-04-26T05:42:00.068Z,1004.28
2023-04-26T05:43:00.044Z,1004.29
2023-04-26T05:44:00.037Z,1004.28
2023-04-26T05:45:00.022Z,1004.28
2023-04-26T05:46:00.100Z,1004.28
2023-04-26T05:47:00.025Z,1004.31
2023-04-26T05:48:00.036Z,1004.32
2023-04-26T05:48:59.967Z,1004.34
2023-04-26T05:49:59.941Z,1004.32
2023-04-26T05:50:59.982Z,1004.31
2023-04-26T05:51:59.925Z,1004.34
2023-04-26T05:52:59.926Z,1004.32
2023-04-26T05:53:59.890Z,1004.35
2023-04-26T05:54:59.988Z,1004.40
2023-04-26T05:55:59.880Z,1004.41
2023-04-26T05:56:59.935Z,1004.43
2023-04-26T05:57:59.850Z,1004.43
2023-04-26T05:58:59.839Z,1004.44
2023-04-26T05:59:59.817Z,1004.45
2023-04-26T06:00:59.836Z,1004.44
2023-04-26T06:01:59.815Z,1004.40
2023-04-26T06:02:59.916Z,1004.45
2023-04-26T06:04:01.182Z,1004.43
2023-04-26T06:04:59.901Z,1004.42
2023-04-26T06:05:59.841Z,1004.50
2023-04-26T06:06:59.721Z,1004.49
2023-04-26T06:07:59.714Z,1004.48
2023-04-26T06:08:59.691Z,1004.52
2023-04-26T06:09:59.680Z,1004.49
2023-04-26T06:10:59.726Z,1004.50
2023-04-26T06:11:59.645Z,1004.47
2023-04-26T06:12:59.646Z,1004.50
2023-04-26T06:13:59.631Z,1004.52
2023-04-26T06:14:59.620Z,1004.49
2023-04-26T06:15:59.609Z,1004.49
2023-04-26T06:16:59.631Z,1004.48
2023-04-26T06:17:59.685Z,1004.49
2023-04-26T06:18:59.559Z,1004.49
2023-04-26T06:19:59.533Z,1004.52
2023-04-26T06:20:59.559Z,1004.54
2023-04-26T06:21:59.511Z,1004.50
2023-04-26T06:22:59.493Z,1004.53
2023-04-26T06:23:59.487Z,1004.49
2023-04-26T06:24:59.500Z,1004.51
2023-04-26T06:25:59.485Z,1004.47
2023-04-26T06:26:59.452Z,1004.47
2023-04-26T06:27:59.443Z,1004.45
2023-04-26T06:28:59.431Z,1004.50
2023-04-26T06:29:59.410Z,1004.51
2023-04-26T06:30:59.468Z,1004.54
2023-04-26T06:31:59.400Z,1004.49
2023-04-26T06:32:59.426Z,1004.46
2023-04-26T06:33:59.367Z,1004.47
2023-04-26T06:34:59.356Z,1004.47
2023-04-26T06:35:59.333Z,1004.48
2023-04-26T06:36:59.332Z,1004.45
2023-04-26T06:37:59.292Z,1004.45
2023-04-26T06:38:59.299Z,1004.45
2023-04-26T06:39:59.277Z,1004.47
2023-04-26T06:40:59.409Z,1004.51
2023-04-26T06:41:59.248Z,1004.48
2023-04-26T06:42:59.242Z,1004.45
2023-04-26T06:43:59.223Z,1004.46
2023-04-26T06:44:59.229Z,1004.43
2023-04-26T06:45:59.231Z,1004.46
2023-04-26T06:46:59.195Z,1004.44
2023-04-26T06:47:59.226Z,1004.47
2023-04-26T06:48:59.164Z,1004.42
2023-04-26T06:49:59.139Z,1004.46
2023-04-26T06:50:59.137Z,1004.46
2023-04-26T06:51:59.132Z,1004.47
2023-04-26T06:52:59.108Z,1004.53
2023-04-26T06:53:59.145Z,1004.53
2023-04-26T06:54:59.084Z,1004.56
2023-04-26T06:55:59.057Z,1004.53
2023-04-26T06:57:01.237Z,1004.54
2023-04-26T06:57:59.048Z,1004.58
2023-04-26T06:58:59.033Z,1004.54
2023-04-26T06:59:59.014Z,1004.52
2023-04-26T07:00:58.998Z,1004.53
2023-04-26T07:01:59.041Z,1004.55
2023-04-26T07:02:59.137Z,1004.52
2023-04-26T07:03:59.343Z,1004.56
2023-04-26T07:04:59.077Z,1004.56
2023-04-26T07:05:58.923Z,1004.58
2023-04-26T07:06:58.961Z,1004.61
2023-04-26T07:07:58.906Z,1004.59
2023-04-26T07:08:59.498Z,1004.60
2023-04-26T07:09:58.904Z,1004.60
2023-04-26T07:10:58.898Z,1004.63
2023-04-26T07:11:58.873Z,1004.65
2023-04-26T07:12:58.843Z,1004.58
2023-04-26T07:13:58.829Z,1004.57
2023-04-26T07:14:58.822Z,1004.56
2023-04-26T07:15:58.834Z,1004.50
2023-04-26T07:16:58.825Z,1004.48
2023-04-26T07:17:58.802Z,1004.52
2023-04-26T07:18:58.752Z,1004.51
2023-04-26T07:19:58.742Z,1004.51
2023-04-26T07:20:58.739Z,1004.50
2023-04-26T07:21:58.736Z,1004.49
2023-04-26T07:22:58.718Z,1004.49
2023-04-26T07:23:58.694Z,1004.47
2023-04-26T07:24:58.686Z,1004.45
2023-04-26T07:25:58.677Z,1004.46
2023-04-26T07:26:58.668Z,1004.44
2023-04-26T07:27:58.626Z,1004.48
2023-04-26T07:28:58.625Z,1004.44
2023-04-26T07:29:58.608Z,1004.44
2023-04-26T07:30:58.599Z,1004.44
2023-04-26T07:31:58.624Z,1004.44
2023-04-26T07:32:58.635Z,1004.42
2023-04-26T07:33:58.638Z,1004.40
2023-04-26T07:34:58.543Z,1004.42
2023-04-26T07:35:58.554Z,1004.40
2023-04-26T07:36:58.543Z,1004.36
2023-04-26T07:37:58.516Z,1004.34
2023-04-26T07:38:58.487Z,1004.35
2023-04-26T07:39:58.491Z,1004.35
2023-04-26T07:40:58.483Z,1004.35
2023-04-26T07:41:58.487Z,1004.26
2023-04-26T07:42:58.442Z,1004.27
2023-04-26T07:43:58.436Z,1004.27
2023-04-26T07:44:58.434Z,1004.24
2023-04-26T07:45:58.508Z,1004.27
2023-04-26T07:46:58.399Z,1004.24
2023-04-26T07:47:58.428Z,1004.24
2023-04-26T07:48:58.365Z,1004.24
2023-04-26T07:49:58.363Z,1004.26
2023-04-26T07:50:58.347Z,1004.27
2023-04-26T07:51:58.340Z,1004.23
2023-04-26T07:52:58.345Z,1004.27
2023-04-26T07:53:58.322Z,1004.26
2023-04-26T07:54:58.320Z,1004.22
2023-04-26T07:55:58.275Z,1004.26
2023-04-26T07:56:58.316Z,1004.22
2023-04-26T07:57:58.274Z,1004.20
2023-04-26T07:58:58.227Z,1004.21
2023-04-26T07:59:58.229Z,1004.21
2023-04-26T08:00:58.215Z,1004.19
2023-04-26T08:01:58.239Z,1004.22
2023-04-26T08:02:58.578Z,1004.24
2023-04-26T08:03:58.476Z,1004.23
2023-04-26T08:04:58.453Z,1004.22
2023-04-26T08:05:58.308Z,1004.23
2023-04-26T08:06:58.176Z,1004.24
2023-04-26T08:07:58.115Z,1004.25
2023-04-26T08:08:58.110Z,1004.22
2023-04-26T08:09:58.099Z,1004.23
2023-04-26T08:10:58.105Z,1004.26
2023-04-26T08:11:58.226Z,1004.24
2023-04-26T08:12:58.101Z,1004.26
2023-04-26T08:13:58.038Z,1004.27
2023-04-26T08:14:58.014Z,1004.25
2023-04-26T08:15:58.022Z,1004.26
2023-04-26T08:16:58.037Z,1004.26
2023-04-26T08:17:58.032Z,1004.27
2023-04-26T08:18:57.972Z,1004.26
2023-04-26T08:19:57.979Z,1004.23
2023-04-26T08:20:57.934Z,1004.24
2023-04-26T08:21:57.957Z,1004.25
2023-04-26T08:22:57.942Z,1004.23
2023-04-26T08:23:57.882Z,1004.25
2023-04-26T08:24:57.879Z,1004.20
2023-04-26T08:25:57.869Z,1004.19
2023-04-26T08:26:57.879Z,1004.20
2023-04-26T08:27:57.851Z,1004.17
2023-04-26T08:28:57.849Z,1004.18
2023-04-26T08:29:57.822Z,1004.18
2023-04-26T08:30:57.872Z,1004.19
2023-04-26T08:31:57.805Z,1004.19
2023-04-26T08:32:57.855Z,1004.15
2023-04-26T08:33:57.776Z,1004.13
2023-04-26T08:34:57.756Z,1004.15
2023-04-26T08:35:57.745Z,1004.10
2023-04-26T08:36:57.746Z,1004.09
2023-04-26T08:37:57.734Z,1004.13
2023-04-26T08:38:57.762Z,1004.11
2023-04-26T08:39:57.700Z,1004.11
2023-04-26T08:40:57.661Z,1004.13
2023-04-26T08:41:57.669Z,1004.12
2023-04-26T08:42:57.637Z,1004.12
2023-04-26T08:43:57.644Z,1004.12
2023-04-26T08:44:57.664Z,1004.10
2023-04-26T08:45:57.601Z,1004.10
2023-04-26T08:46:57.640Z,1004.10
2023-04-26T08:47:57.636Z,1004.11
2023-04-26T08:48:57.584Z,1004.12
2023-04-26T08:49:57.559Z,1004.11
2023-04-26T08:50:57.557Z,1004.09
2023-04-26T08:51:57.561Z,1004.07
2023-04-26T08:52:57.584Z,1004.11
2023-04-26T08:53:57.513Z,1004.08
2023-04-26T08:54:57.623Z,1004.06
2023-04-26T08:55:57.527Z,1004.09
2023-04-26T08:56:57.576Z,1004.09
2023-04-26T08:57:57.456Z,1004.11
2023-04-26T08:58:57.447Z,1004.10
2023-04-26T08:59:57.434Z,1004.07
2023-04-26T09:00:57.422Z,1004.09
2023-04-26T09:01:57.446Z,1004.10
2023-04-26T09:02:57.457Z,1004.07
2023-04-26T09:03:58.034Z,1004.08
2023-04-26T09:04:57.428Z,1004.07
2023-04-26T09:05:57.360Z,1004.02
2023-04-26T09:06:57.356Z,1004.04
2023-04-26T09:07:57.338Z,1004.08
2023-04-26T09:08:57.325Z,1004.03
2023-04-26T09:09:57.314Z,1004.06
2023-04-26T09:10:57.285Z,1004.03
2023-04-26T09:11:57.268Z,1004.00
2023-04-26T09:12:57.277Z,1004.06
2023-04-26T09:13:57.256Z,1003.99
2023-04-26T09:14:57.238Z,1003.97
2023-04-26T09:15:57.237Z,1003.97
2023-04-26T09:16:57.198Z,1003.98
2023-04-26T09:17:57.271Z,1003.86
2023-04-26T09:18:57.227Z,1003.91
2023-04-26T09:19:57.157Z,1003.85
2023-04-26T09:20:57.142Z,1003.89
2023-04-26T09:21:57.157Z,1003.86
2023-04-26T09:22:57.129Z,1003.86
2023-04-26T09:23:57.216Z,1003.82
2023-04-26T09:24:57.087Z,1003.82
2023-04-26T09:25:57.134Z,1003.82
2023-04-26T09:26:57.072Z,1003.81
2023-04-26T09:27:57.079Z,1003.83
2023-04-26T09:28:57.037Z,1003.86
2023-04-26T09:29:57.036Z,1003.84
2023-04-26T09:30:57.041Z,1003.86
2023-04-26T09:31:57.073Z,1003.83
2023-04-26T09:32:57.091Z,1003.84
2023-04-26T09:33:57.016Z,1003.81
2023-04-26T09:34:56.962Z,1003.79
2023-04-26T09:35:56.929Z,1003.84
2023-04-26T09:36:57.054Z,1003.81
2023-04-26T09:37:59.551Z,1003.77
2023-04-26T09:38:57.889Z,1003.83
2023-04-26T09:39:56.922Z,1003.75
2023-04-26T09:40:56.902Z,1003.73
2023-04-26T09:41:56.864Z,1003.74
2023-04-26T09:42:56.861Z,1003.72
2023-04-26T09:43:56.839Z,1003.76
2023-04-26T09:44:56.815Z,1003.74
2023-04-26T09:45:56.874Z,1003.74
2023-04-26T09:46:56.843Z,1003.78
2023-04-26T09:47:56.855Z,1003.77
2023-04-26T09:48:56.784Z,1003.75
2023-04-26T09:49:56.771Z,1003.78
2023-04-26T09:50:56.731Z,1003.72
2023-04-26T09:51:56.732Z,1003.70
2023-04-26T09:52:56.728Z,1003.71
2023-04-26T09:53:56.845Z,1003.73
2023-04-26T09:54:56.706Z,1003.74
2023-04-26T09:55:56.671Z,1003.73
2023-04-26T09:56:56.650Z,1003.75
2023-04-26T09:57:56.665Z,1003.74
2023-04-26T09:58:56.638Z,1003.72
2023-04-26T09:59:56.632Z,1003.74
2023-04-26T10:00:56.668Z,1003.76
2023-04-26T10:01:56.583Z,1003.75
2023-04-26T10:02:56.680Z,1003.75
2023-04-26T10:03:56.794Z,1003.75
2023-04-26T10:04:56.654Z,1003.76
2023-04-26T10:05:56.537Z,1003.76
2023-04-26T10:06:56.518Z,1003.74
2023-04-26T10:07:56.524Z,1003.74
2023-04-26T10:08:56.671Z,1003.73
2023-04-26T10:09:56.467Z,1003.72
2023-04-26T10:10:56.462Z,1003.73
2023-04-26T10:11:56.458Z,1003.69
2023-04-26T10:12:56.459Z,1003.74
2023-04-26T10:13:56.429Z,1003.67
2023-04-26T10:14:56.414Z,1003.67
2023-04-26T10:15:56.416Z,1003.67
2023-04-26T10:16:56.499Z,1003.64
2023-04-26T10:17:56.400Z,1003.62
2023-04-26T10:18:56.392Z,1003.64
2023-04-26T10:19:56.384Z,1003.64
2023-04-26T10:20:56.328Z,1003.65
2023-04-26T10:21:56.313Z,1003.65
2023-04-26T10:22:56.303Z,1003.64
2023-04-26T10:23:56.303Z,1003.65
2023-04-26T10:24:56.256Z,1003.61
2023-04-26T10:25:56.271Z,1003.59
2023-04-26T10:26:56.240Z,1003.58
2023-04-26T10:27:56.234Z,1003.55
2023-04-26T10:29:01.365Z,1003.53
2023-04-26T10:29:57.328Z,1003.47
2023-04-26T10:30:56.216Z,1003.50
2023-04-26T10:31:56.272Z,1003.48
2023-04-26T10:32:56.220Z,1003.50
2023-04-26T10:33:56.171Z,1003.52
2023-04-26T10:34:56.173Z,1003.44
2023-04-26T10:35:56.117Z,1003.46
2023-04-26T10:36:56.117Z,1003.48
2023-04-26T10:37:56.094Z,1003.48
2023-04-26T10:38:56.101Z,1003.42
2023-04-26T10:39:56.073Z,1003.45
2023-04-26T10:40:56.059Z,1003.48
2023-04-26T10:41:56.042Z,1003.46
2023-04-26T10:42:56.023Z,1003.48
2023-04-26T10:43:56.357Z,1003.47
2023-04-26T10:44:56.154Z,1003.43
2023-04-26T10:45:56.018Z,1003.45
2023-04-26T10:46:55.994Z,1003.45
2023-04-26T10:47:55.978Z,1003.44
2023-04-26T10:48:55.967Z,1003.45
2023-04-26T10:49:55.935Z,1003.37
2023-04-26T10:50:55.924Z,1003.40
2023-04-26T10:51:55.924Z,1003.35
2023-04-26T10:52:55.897Z,1003.35
2023-04-26T10:53:56.003Z,1003.33
2023-04-26T10:54:55.861Z,1003.29
2023-04-26T10:55:55.876Z,1003.30
2023-04-26T10:56:55.850Z,1003.25
2023-04-26T10:57:55.841Z,1003.25
2023-04-26T10:58:55.834Z,1003.23
2023-04-26T10:59:55.816Z,1003.22
2023-04-26T11:00:55.855Z,1003.20
2023-04-26T11:01:55.799Z,1003.20
2023-04-26T11:02:55.948Z,1003.25
2023-04-26T11:03:56.284Z,1003.27
2023-04-26T11:04:55.755Z,1003.28
2023-04-26T11:05:55.822Z,1003.30
2023-04-26T11:06:55.775Z,1003.25
2023-04-26T11:07:55.697Z,1003.28
2023-04-26T11:08:55.810Z,1003.22
2023-04-26T11:09:55.691Z,1003.23
2023-04-26T11:10:55.802Z,1003.26
2023-04-26T11:11:55.709Z,1003.26
2023-04-26T11:12:55.625Z,1003.24
2023-04-26T11:13:55.642Z,1003.22
2023-04-26T11:14:55.593Z,1003.19
2023-04-26T11:15:55.626Z,1003.22
2023-04-26T11:16:55.599Z,1003.24
2023-04-26T11:17:55.592Z,1003.20
2023-04-26T11:19:02.817Z,1003.20
2023-04-26T11:19:55.525Z,1003.21
2023-04-26T11:20:55.514Z,1003.19
2023-04-26T11:21:56.257Z,1003.15
2023-04-26T11:22:55.504Z,1003.16
2023-04-26T11:23:55.526Z,1003.14
2023-04-26T11:24:55.450Z,1003.14
2023-04-26T11:25:55.468Z,1003.13
2023-04-26T11:26:55.428Z,1003.07
2023-04-26T11:27:55.435Z,1003.07
2023-04-26T11:28:55.485Z,1003.06
2023-04-26T11:29:55.478Z,1003.07
2023-04-26T11:30:55.413Z,1003.07
2023-04-26T11:31:55.484Z,1003.11
2023-04-26T11:32:55.406Z,1003.14
2023-04-26T11:33:55.338Z,1003.16
2023-04-26T11:34:55.325Z,1003.17
2023-04-26T11:35:55.332Z,1003.14
2023-04-26T11:36:55.292Z,1003.12
2023-04-26T11:37:55.287Z,1003.13
2023-04-26T11:38:55.283Z,1003.08
2023-04-26T11:39:55.258Z,1003.09
2023-04-26T11:40:55.235Z,1003.10
2023-04-26T11:41:55.245Z,1003.06
2023-04-26T11:42:55.227Z,1003.04
2023-04-26T11:43:55.262Z,1003.03
2023-04-26T11:44:55.200Z,1003.04
2023-04-26T11:45:55.174Z,1003.00
2023-04-26T11:46:55.196Z,1003.02
2023-04-26T11:47:55.215Z,1003.03
2023-04-26T11:48:55.471Z,1003.02
2023-04-26T11:49:55.122Z,1003.08
2023-04-26T11:50:55.140Z,1003.06
2023-04-26T11:51:55.088Z,1003.01
2023-04-26T11:52:55.107Z,1003.06
2023-04-26T11:53:55.076Z,1002.99
2023-04-26T11:54:55.059Z,1002.99
2023-04-26T11:55:55.045Z,1003.03
2023-04-26T11:56:55.025Z,1002.99
2023-04-26T11:57:55.032Z,1002.98
2023-04-26T11:58:55.393Z,1003.03
2023-04-26T11:59:54.986Z,1003.01
2023-04-26T12:00:54.966Z,1003.00
2023-04-26T12:01:55.011Z,1002.99
2023-04-26T12:02:55.148Z,1002.92
2023-04-26T12:03:55.116Z,1002.93
2023-04-26T12:04:54.997Z,1002.88